Serenade Of The Seas — C6FV8 — position and weather

sailwx.info

Track history (hours):
 
Tides and Currents Weather Stations Pressure Air Temp Water Temp Dewpoint Dewpoint Depression Visibility Wind Speed Wind Dir Waves Ship Positions

Serenade Of The Seas

Operator: Royal Caribbean Cruises Ltd

Last reported at 2018-Aug-14 13:30 UTC. Time now 2018-Aug-14 13:47 UTC.
Position N 60°23' E 005°18'.

Length 294 m; draft 8.5 m.

Type: Ship. MMSI: 311492000.

Date/timePositionNaut miles runAvg speedWind from/ knotsBaromVisibWave heightAir tempDewpointWater temp
2018-Aug-14 13:30N 60°23' E 005°18'0 0.0
2018-Aug-14 13:00N 60°23' E 005°18'0 0.0
2018-Aug-14 12:30N 60°23' E 005°18'0 0.0
2018-Aug-14 11:57N 60°23' E 005°18'0 0.0
2018-Aug-14 11:27N 60°23' E 005°18'0 0.0
2018-Aug-14 11:00N 60°23' E 005°18'0 0.0
2018-Aug-14 10:30N 60°23' E 005°18'0 0.0
2018-Aug-14 10:00N 60°23' E 005°18'0 0.0
2018-Aug-14 09:31N 60°23' E 005°18'0 0.0
2018-Aug-14 09:00N 60°23' E 005°18'0 0.0
2018-Aug-14 08:31N 60°23' E 005°18'0 0.0
2018-Aug-14 08:00N 60°23' E 005°18'0 0.0
2018-Aug-14 07:30N 60°23' E 005°18'0 0.0
2018-Aug-14 07:00N 60°23' E 005°18'0 0.0
2018-Aug-14 06:30N 60°23' E 005°18'0 0.0
2018-Aug-14 06:00N 60°23' E 005°18'0 0.0
2018-Aug-14 05:30N 60°23' E 005°18'1 1.2
2018-Aug-14 05:00N 60°24' E 005°17'4 8.8
2018-Aug-14 04:30N 60°24' E 005°08'612.7
2018-Aug-14 04:00N 60°28' E 004°60'917.6
2018-Aug-14 03:30N 60°37' E 004°53'816.2
2018-Aug-14 03:00N 60°44' E 004°45'510.9
2018-Aug-14 02:30N 60°45' E 004°34'612.4
2018-Aug-14 02:00N 60°42' E 004°23'9412.7
2018-Aug-13 18:37N 59°09' E 004°49'214.6
2018-Aug-13 18:30N 59°08' E 004°52'714.5
2018-Aug-13 18:00N 59°04' E 005°02'713.6
2018-Aug-13 17:30N 59°04' E 005°15'714.0
2018-Aug-13 17:00N 59°07' E 005°28'713.1
2018-Aug-13 16:30N 59°02' E 005°37'5 9.7
2018-Aug-13 16:00N 58°59' E 005°44'0 0.1
2018-Aug-13 15:28N 58°58' E 005°44'0 0.0
2018-Aug-13 14:58N 58°58' E 005°44'0 0.0
2018-Aug-13 14:31N 58°58' E 005°44'0 0.0
2018-Aug-13 14:01N 58°58' E 005°44'0 0.0
2018-Aug-13 13:28N 58°58' E 005°44'0 0.0
2018-Aug-13 13:01N 58°58' E 005°44'0 0.0
2018-Aug-13 12:28N 58°58' E 005°44'0 0.0
2018-Aug-13 11:58N 58°58' E 005°44'0 0.0
2018-Aug-13 11:28N 58°58' E 005°44'0 0.0
2018-Aug-13 10:58N 58°58' E 005°44'0 0.0
2018-Aug-13 10:31N 58°58' E 005°44'0 0.0
2018-Aug-13 09:58N 58°58' E 005°44'0 0.0
2018-Aug-13 09:31N 58°58' E 005°44'0 0.0
2018-Aug-13 08:58N 58°58' E 005°44'0 0.0
2018-Aug-13 08:31N 58°58' E 005°44'0 0.0
2018-Aug-13 08:01N 58°58' E 005°44'0 0.0
2018-Aug-13 07:28N 58°58' E 005°44'0 0.0
2018-Aug-13 07:01N 58°58' E 005°44'0 0.0
2018-Aug-13 06:28N 58°58' E 005°44'0 0.0
2018-Aug-13 05:58N 58°58' E 005°44'0 0.0
2018-Aug-13 05:31N 58°58' E 005°44'0 0.3
2018-Aug-13 05:00N 58°59' E 005°44'510.1
2018-Aug-13 04:30N 59°02' E 005°36'713.0
2018-Aug-13 04:00N 59°06' E 005°27'5 9.2
2018-Aug-13 03:30N 59°04' E 005°19'510.3
2018-Aug-13 03:00N 59°02' E 005°10'510.1
2018-Aug-13 02:30N 58°57' E 005°05'510.8
2018-Aug-13 02:00N 58°52' E 005°03'510.7
2018-Aug-13 01:30N 58°47' E 005°00'510.7
2018-Aug-13 01:01N 58°42' E 004°58'510.6
2018-Aug-13 00:30N 58°37' E 005°02'510.6
2018-Aug-13 00:00N 58°32' E 005°07'510.2
2018-Aug-12 23:30N 58°28' E 005°12'611.5
2018-Aug-12 23:00N 58°23' E 005°17'712.6
2018-Aug-12 22:29N 58°18' E 005°27'611.6
2018-Aug-12 22:00N 58°15' E 005°35'611.6
2018-Aug-12 21:30N 58°11' E 005°43'611.8
2018-Aug-12 21:00N 58°07' E 005°51'612.0
2018-Aug-12 20:30N 58°03' E 005°60'3011.6
2018-Aug-12 17:57N 57°48' E 006°47'511.9
2018-Aug-12 17:30N 57°47' E 006°57'611.5
2018-Aug-12 16:59N 57°47' E 007°08'611.2
2018-Aug-12 16:29N 57°47' E 007°19'511.0
2018-Aug-12 16:00N 57°47' E 007°29'611.4
2018-Aug-12 15:30N 57°46' E 007°39'611.3
2018-Aug-12 15:00N 57°46' E 007°50'611.2
2018-Aug-12 14:30N 57°46' E 008°01'510.9
2018-Aug-12 14:00N 57°47' E 008°11'7210.3
2018-Aug-12 07:03N 57°50' E 010°25'1 9.2
2018-Aug-12 07:00N 57°50' E 010°26'5 9.0
2018-Aug-12 06:30N 57°51' E 010°35'5 9.2
2018-Aug-12 06:00N 57°49' E 010°43'5 9.1
2018-Aug-12 05:30N 57°47' E 010°50'510.1
2018-Aug-12 05:00N 57°43' E 010°57'5 9.8
2018-Aug-12 04:30N 57°40' E 011°03'510.1
2018-Aug-12 04:00N 57°36' E 011°10'510.1
2018-Aug-12 03:30N 57°33' E 011°17'510.1
2018-Aug-12 03:00N 57°30' E 011°24'510.3
2018-Aug-12 02:30N 57°25' E 011°28'611.1
2018-Aug-12 02:00N 57°20' E 011°32'611.2
2018-Aug-12 01:30N 57°14' E 011°35'510.3
2018-Aug-12 01:00N 57°10' E 011°38'510.1
2018-Aug-12 00:30N 57°05' E 011°42'62 9.8
2018-Aug-11 18:13N 56°09' E 012°28'210.2
2018-Aug-11 18:00N 56°08' E 012°31'510.7
2018-Aug-11 17:30N 56°04' E 012°38'510.7
2018-Aug-11 17:00N 55°59' E 012°42'510.8
2018-Aug-11 16:30N 55°54' E 012°45'510.3
2018-Aug-11 16:00N 55°49' E 012°44'510.4
2018-Aug-11 15:30N 55°44' E 012°40'2 4.0
2018-Aug-11 14:59N 55°43' E 012°37'0 0.0
2018-Aug-11 14:29N 55°43' E 012°37'0 0.0
2018-Aug-11 13:59N 55°43' E 012°37'0 0.0
2018-Aug-11 13:29N 55°43' E 012°37'0 0.0
2018-Aug-11 12:59N 55°43' E 012°37'0 0.0
2018-Aug-11 12:26N 55°43' E 012°37'0 0.0
2018-Aug-11 11:59N 55°43' E 012°37'0 0.0
2018-Aug-11 11:29N 55°43' E 012°37'0 0.0
2018-Aug-11 10:56N 55°43' E 012°37'0 0.0
2018-Aug-11 10:29N 55°43' E 012°37'0 0.0
2018-Aug-11 09:56N 55°43' E 012°37'0 0.0
2018-Aug-11 09:29N 55°43' E 012°37'0 0.0
2018-Aug-11 08:59N 55°43' E 012°37'0 0.0
2018-Aug-11 08:29N 55°43' E 012°37'0 0.0
2018-Aug-11 07:53N 55°43' E 012°37'0 0.0
2018-Aug-11 07:23N 55°43' E 012°37'0 0.0
2018-Aug-11 06:59N 55°43' E 012°37'0 0.0
2018-Aug-11 06:26N 55°43' E 012°37'0 0.0
2018-Aug-11 05:53N 55°43' E 012°37'0 0.0
2018-Aug-11 05:29N 55°43' E 012°37'0 0.0
2018-Aug-11 04:59N 55°43' E 012°37'0 0.4
2018-Aug-11 04:30N 55°43' E 012°37'4 8.0
2018-Aug-11 04:00N 55°46' E 012°42'714.3
2018-Aug-11 03:30N 55°53' E 012°39'713.8
2018-Aug-11 03:01N 55°60' E 012°40'916.8
2018-Aug-11 02:30N 56°07' E 012°31'7213.4
2018-Aug-10 21:07N 55°13' E 011°06'219.0
2018-Aug-10 21:00N 55°11' E 011°05'918.8
2018-Aug-10 20:30N 55°01' E 011°02'918.4
2018-Aug-10 20:01N 54°54' E 010°54'918.5
2018-Aug-10 19:31N 54°44' E 010°53'918.2
2018-Aug-10 19:01N 54°38' E 011°04'1121.1
2018-Aug-10 18:30N 54°34' E 011°21'1020.7
2018-Aug-10 18:00N 54°29' E 011°37'10718.7
2018-Aug-10 12:18N 55°17' E 014°23'720.4
2018-Aug-10 11:57N 55°23' E 014°29'920.1
2018-Aug-10 11:29N 55°29' E 014°42'1520.1
2018-Aug-10 10:46N 55°36' E 015°05'519.9
2018-Aug-10 10:31N 55°38' E 015°13'1019.3
2018-Aug-10 10:01N 55°42' E 015°28'917.8
2018-Aug-10 09:31N 55°47' E 015°42'1019.7
2018-Aug-10 09:01N 55°52' E 015°57'1019.2
2018-Aug-10 08:30N 55°57' E 016°12'918.8
2018-Aug-10 08:01N 56°02' E 016°26'1019.7
2018-Aug-10 07:30N 56°07' E 016°41'918.7
2018-Aug-10 07:01N 56°13' E 016°54'11518.2
2018-Aug-10 00:41N 57°33' E 019°25'419.2
2018-Aug-10 00:28N 57°36' E 019°29'2719.2
2018-Aug-09 23:04N 57°58' E 019°59'118.8
2018-Aug-09 23:01N 57°59' E 019°60'1019.3
2018-Aug-09 22:30N 58°07' E 020°11'4618.7
2018-Aug-09 20:03N 58°44' E 021°02'118.2
2018-Aug-09 20:00N 58°45' E 021°04'918.1
2018-Aug-09 19:30N 58°52' E 021°14'918.4
2018-Aug-09 19:01N 58°59' E 021°24'918.6
2018-Aug-09 18:31N 59°07' E 021°35'918.5
2018-Aug-09 18:01N 59°13' E 021°48'918.4
2018-Aug-09 17:31N 59°19' E 022°02'918.3
2018-Aug-09 17:01N 59°24' E 022°17'918.4
2018-Aug-09 16:30N 59°29' E 022°32'918.9
2018-Aug-09 16:00N 59°32' E 022°50'918.7
2018-Aug-09 15:31N 59°35' E 023°07'1018.4
2018-Aug-09 14:59N 59°37' E 023°26'918.4
2018-Aug-09 14:31N 59°40' E 023°42'918.7
2018-Aug-09 14:01N 59°43' E 023°60'918.9
2018-Aug-09 13:31N 59°46' E 024°18'918.9
2018-Aug-09 13:01N 59°49' E 024°36'918.8
2018-Aug-09 12:31N 59°54' E 024°51'815.3
2018-Aug-09 12:01N 60°01' E 024°56'713.8
2018-Aug-09 11:30N 60°08' E 024°54'1 1.5
2018-Aug-09 10:58N 60°09' E 024°55'0 0.0
2018-Aug-09 10:28N 60°09' E 024°55'0 0.0
2018-Aug-09 09:58N 60°09' E 024°55'0 0.0
2018-Aug-09 09:28N 60°09' E 024°55'0 0.0
2018-Aug-09 08:58N 60°09' E 024°55'0 0.0
2018-Aug-09 08:28N 60°09' E 024°55'0 0.0
2018-Aug-09 07:58N 60°09' E 024°55'0 0.0
2018-Aug-09 07:28N 60°09' E 024°55'0 0.0
2018-Aug-09 06:58N 60°09' E 024°55'0 0.0
2018-Aug-09 06:28N 60°09' E 024°55'0 0.0
2018-Aug-09 05:55N 60°09' E 024°55'0 0.0
2018-Aug-09 05:28N 60°09' E 024°55'0 0.0
2018-Aug-09 04:58N 60°09' E 024°55'0 0.0
2018-Aug-09 04:28N 60°09' E 024°55'0 0.0
2018-Aug-09 03:58N 60°09' E 024°55'0 0.1
2018-Aug-09 03:31N 60°09' E 024°55'4 7.1
2018-Aug-09 03:00N 60°06' E 024°54'712.7
2018-Aug-09 02:29N 59°60' E 024°60'919.1
2018-Aug-09 02:00N 59°56' E 025°17'919.0
2018-Aug-09 01:31N 59°54' E 025°35'1019.2
2018-Aug-09 01:00N 59°57' E 025°54'1019.2
2018-Aug-09 00:30N 59°58' E 026°13'919.4
2018-Aug-09 00:01N 60°01' E 026°31'1019.4
2018-Aug-08 23:30N 60°00' E 026°51'917.9
2018-Aug-08 23:00N 60°01' E 027°08'918.7
2018-Aug-08 22:31N 60°06' E 027°25'1019.0
2018-Aug-08 22:00N 60°11' E 027°41'917.9
2018-Aug-08 21:30N 60°10' E 027°59'918.9
2018-Aug-08 21:00N 60°08' E 028°17'918.4
2018-Aug-08 20:30N 60°03' E 028°33'1322.5
2018-Aug-08 19:56N 60°02' E 028°59'818.8
2018-Aug-08 19:29N 60°02' E 029°16'711.6
2018-Aug-08 18:53N 60°02' E 029°29'811.4
2018-Aug-08 18:11N 59°59' E 029°45'1 5.9
2018-Aug-08 17:59N 59°58' E 029°47'611.5
2018-Aug-08 17:29N 59°56' E 029°57'4 8.0
2018-Aug-08 17:00N 59°56' E 030°05'3 5.3
2018-Aug-08 16:25N 59°57' E 030°11'0 0.0
2018-Aug-08 16:00N 59°57' E 030°11'0 0.0
2018-Aug-08 15:25N 59°57' E 030°11'0 0.0
2018-Aug-08 15:00N 59°57' E 030°11'0 0.0
2018-Aug-08 14:24N 59°57' E 030°11'0 0.0
2018-Aug-08 14:00N 59°57' E 030°11'0 0.0
2018-Aug-08 13:26N 59°57' E 030°11'0 0.0
2018-Aug-08 13:00N 59°57' E 030°11'0 0.0
2018-Aug-08 12:27N 59°57' E 030°11'0 0.0
2018-Aug-08 11:45N 59°57' E 030°11'0 0.0
2018-Aug-08 11:28N 59°57' E 030°11'0 0.0
2018-Aug-08 10:54N 59°57' E 030°11'0 0.0
2018-Aug-08 10:18N 59°57' E 030°11'0 0.0
2018-Aug-08 09:54N 59°57' E 030°11'0 0.0
2018-Aug-08 09:22N 59°57' E 030°11'0 0.0
2018-Aug-08 08:56N 59°57' E 030°11'0 0.0
2018-Aug-08 08:23N 59°57' E 030°11'0 0.0
2018-Aug-08 07:53N 59°57' E 030°11'0 0.0
2018-Aug-08 07:16N 59°57' E 030°11'0 0.0
2018-Aug-08 06:59N 59°57' E 030°11'0 0.0
2018-Aug-08 06:27N 59°57' E 030°11'0 0.0
2018-Aug-08 05:54N 59°57' E 030°11'0 0.0
2018-Aug-08 05:27N 59°57' E 030°11'0 0.0
2018-Aug-08 04:53N 59°57' E 030°11'0 0.0
2018-Aug-08 04:27N 59°57' E 030°11'0 0.0
2018-Aug-08 03:54N 59°57' E 030°11'1 1.6
2018-Aug-08 03:29N 59°57' E 030°10'5 9.1
2018-Aug-08 02:56N 59°55' E 030°00'410.4
2018-Aug-08 02:31N 59°57' E 029°52'1510.0
2018-Aug-08 01:02N 60°02' E 029°24'014.5
2018-Aug-08 01:00N 60°02' E 029°23'816.4
2018-Aug-08 00:30N 60°02' E 029°06'714.2
2018-Aug-08 00:00N 60°02' E 028°52'714.4
2018-Aug-07 23:30N 60°02' E 028°38'815.3
2018-Aug-07 23:00N 60°04' E 028°23'815.4
2018-Aug-07 22:30N 60°08' E 028°09'815.6
2018-Aug-07 22:00N 60°10' E 027°54'715.0
2018-Aug-07 21:30N 60°08' E 027°40'815.6
2018-Aug-07 21:00N 60°04' E 027°26'1016.4
2018-Aug-07 20:24N 59°59' E 027°09'615.0
2018-Aug-07 20:00N 59°58' E 026°57'816.0
2018-Aug-07 19:30N 59°60' E 026°42'816.7
2018-Aug-07 19:00N 59°58' E 026°26'816.8
2018-Aug-07 18:30N 59°56' E 026°09'916.6
2018-Aug-07 17:58N 59°53' E 025°52'816.8
2018-Aug-07 17:30N 59°51' E 025°37'916.7
2018-Aug-07 16:59N 59°49' E 025°20'1117.0
2018-Aug-07 16:22N 59°47' E 024°60'616.6
2018-Aug-07 16:01N 59°43' E 024°50'816.8
2018-Aug-07 15:30N 59°36' E 024°41'815.9
2018-Aug-07 15:01N 59°29' E 024°46'2 3.6
2018-Aug-07 14:30N 59°27' E 024°46'0 0.0
2018-Aug-07 14:00N 59°27' E 024°46'0 0.0
2018-Aug-07 13:30N 59°27' E 024°46'0 0.0
2018-Aug-07 13:00N 59°27' E 024°46'0 0.0
2018-Aug-07 12:30N 59°27' E 024°46'0 0.0
2018-Aug-07 12:00N 59°27' E 024°46'0 0.0
2018-Aug-07 11:30N 59°27' E 024°46'0 0.0
2018-Aug-07 11:00N 59°27' E 024°46'0 0.0
2018-Aug-07 10:30N 59°27' E 024°46'0 0.0
2018-Aug-07 10:00N 59°27' E 024°46'0 0.0
2018-Aug-07 09:30N 59°27' E 024°46'0 0.0
2018-Aug-07 09:00N 59°27' E 024°46'0 0.0
2018-Aug-07 08:30N 59°27' E 024°46'0 0.0
2018-Aug-07 08:00N 59°27' E 024°46'0 0.0
2018-Aug-07 07:30N 59°27' E 024°46'0 0.0
2018-Aug-07 07:00N 59°27' E 024°46'0 0.0
2018-Aug-07 06:30N 59°27' E 024°46'0 0.6
2018-Aug-07 06:00N 59°27' E 024°46'4 8.5
2018-Aug-07 05:30N 59°30' E 024°40'714.6
2018-Aug-07 05:00N 59°30' E 024°26'2517.5
2018-Aug-07 03:34N 59°30' E 023°36'118.0
2018-Aug-07 03:30N 59°30' E 023°34'5617.9
2018-Aug-07 00:24N 59°24' E 021°45'718.2
2018-Aug-07 00:00N 59°24' E 021°31'1018.3
2018-Aug-06 23:29N 59°24' E 021°12'8413.5
2018-Aug-06 17:13N 59°29' E 018°27'311.8
2018-Aug-06 17:00N 59°27' E 018°25'4 8.0
2018-Aug-06 16:30N 59°23' E 018°27'2 4.0
2018-Aug-06 16:00N 59°22' E 018°23'510.3
2018-Aug-06 15:30N 59°21' E 018°14'3 4.8
2018-Aug-06 14:52N 59°21' E 018°08'0 0.0
2018-Aug-06 14:28N 59°21' E 018°08'0 0.0
2018-Aug-06 13:58N 59°21' E 018°08'0 0.0
2018-Aug-06 13:28N 59°21' E 018°08'0 0.0
2018-Aug-06 12:58N 59°21' E 018°08'0 0.0
2018-Aug-06 12:28N 59°21' E 018°08'0 0.0
2018-Aug-06 11:58N 59°21' E 018°08'0 0.0
2018-Aug-06 11:28N 59°21' E 018°08'0 0.0
2018-Aug-06 10:58N 59°21' E 018°08'0 0.0
2018-Aug-06 10:28N 59°21' E 018°08'0 0.0
2018-Aug-06 09:58N 59°21' E 018°08'0 0.0
2018-Aug-06 09:28N 59°21' E 018°08'0 0.0
2018-Aug-06 08:58N 59°21' E 018°08'0 0.0
2018-Aug-06 08:28N 59°21' E 018°08'0 0.0
2018-Aug-06 07:58N 59°21' E 018°08'0 0.0
2018-Aug-06 07:28N 59°21' E 018°08'0 0.0
2018-Aug-06 06:58N 59°21' E 018°08'1 1.5
2018-Aug-06 06:30N 59°21' E 018°09'5 9.1
2018-Aug-06 06:00N 59°22' E 018°17'5 9.8
2018-Aug-06 05:30N 59°22' E 018°26'5 9.6
2018-Aug-06 05:00N 59°26' E 018°23'21011.9
2018-Aug-05 11:23N 56°02' E 016°44'922.7
2018-Aug-05 10:59N 55°57' E 016°31'1122.9
2018-Aug-05 10:30N 55°51' E 016°16'1123.0
2018-Aug-05 10:00N 55°44' E 015°59'1122.8
2018-Aug-05 09:30N 55°40' E 015°40'1223.1
2018-Aug-05 09:01N 55°35' E 015°22'1223.0
2018-Aug-05 08:30N 55°30' E 015°03'1223.0
2018-Aug-05 08:00N 55°26' E 014°44'1122.3
2018-Aug-05 07:30N 55°18' E 014°29'1122.4
2018-Aug-05 07:00N 55°09' E 014°19'7521.9
2018-Aug-05 03:34N 54°37' E 012°21'122.0
2018-Aug-05 03:30N 54°36' E 012°19'2518.6
2018-Aug-05 02:11N 54°25' E 011°40'422.8
2018-Aug-05 02:01N 54°27' E 011°35'1122.9
2018-Aug-05 01:31N 54°32' E 011°17'1122.8
2018-Aug-05 01:00N 54°39' E 011°00'1020.1
2018-Aug-05 00:30N 54°47' E 010°51'1121.3
2018-Aug-05 00:00N 54°57' E 010°57'1121.6
2018-Aug-04 23:31N 55°07' E 011°02'7814.1
2018-Aug-04 17:58N 56°09' E 012°28'817.2
2018-Aug-04 17:29N 56°04' E 012°39'816.7
2018-Aug-04 17:00N 55°56' E 012°44'815.5
2018-Aug-04 16:30N 55°48' E 012°44'612.9
2018-Aug-04 16:00N 55°43' E 012°38'0 0.8
2018-Aug-04 15:30N 55°43' E 012°37'0 0.0
2018-Aug-04 15:00N 55°43' E 012°37'0 0.0
2018-Aug-04 14:30N 55°43' E 012°37'0 0.0
2018-Aug-04 14:00N 55°43' E 012°37'  
Track history (hours):
 
Tides and Currents Weather Stations Pressure Air Temp Water Temp Dewpoint Dewpoint Depression Visibility Wind Speed Wind Dir Waves Ship Positions

Serenade Of The Seas

Operator: Royal Caribbean Cruises Ltd

Last reported at 2018-Aug-14 13:30 UTC. Time now 2018-Aug-14 13:47 UTC.
Position N 60°23' E 005°18'.

Length 294 m; draft 8.5 m.

Type: Ship. MMSI: 311492000.

Date/timePositionNaut miles runAvg speedWind from/ knotsBaromVisibWave heightAir tempDewpointWater temp
2018-Aug-14 13:30N 60°23' E 005°18'0 0.0
2018-Aug-14 13:00N 60°23' E 005°18'0 0.0
2018-Aug-14 12:30N 60°23' E 005°18'0 0.0
2018-Aug-14 11:57N 60°23' E 005°18'0 0.0
2018-Aug-14 11:27N 60°23' E 005°18'0 0.0
2018-Aug-14 11:00N 60°23' E 005°18'0 0.0
2018-Aug-14 10:30N 60°23' E 005°18'0 0.0
2018-Aug-14 10:00N 60°23' E 005°18'0 0.0
2018-Aug-14 09:31N 60°23' E 005°18'0 0.0
2018-Aug-14 09:00N 60°23' E 005°18'0 0.0
2018-Aug-14 08:31N 60°23' E 005°18'0 0.0
2018-Aug-14 08:00N 60°23' E 005°18'0 0.0
2018-Aug-14 07:30N 60°23' E 005°18'0 0.0
2018-Aug-14 07:00N 60°23' E 005°18'0 0.0
2018-Aug-14 06:30N 60°23' E 005°18'0 0.0
2018-Aug-14 06:00N 60°23' E 005°18'0 0.0
2018-Aug-14 05:30N 60°23' E 005°18'1 1.2
2018-Aug-14 05:00N 60°24' E 005°17'4 8.8
2018-Aug-14 04:30N 60°24' E 005°08'612.7
2018-Aug-14 04:00N 60°28' E 004°60'917.6
2018-Aug-14 03:30N 60°37' E 004°53'816.2
2018-Aug-14 03:00N 60°44' E 004°45'510.9
2018-Aug-14 02:30N 60°45' E 004°34'612.4
2018-Aug-14 02:00N 60°42' E 004°23'9412.7
2018-Aug-13 18:37N 59°09' E 004°49'214.6
2018-Aug-13 18:30N 59°08' E 004°52'714.5
2018-Aug-13 18:00N 59°04' E 005°02'713.6
2018-Aug-13 17:30N 59°04' E 005°15'714.0
2018-Aug-13 17:00N 59°07' E 005°28'713.1
2018-Aug-13 16:30N 59°02' E 005°37'5 9.7
2018-Aug-13 16:00N 58°59' E 005°44'0 0.1
2018-Aug-13 15:28N 58°58' E 005°44'0 0.0
2018-Aug-13 14:58N 58°58' E 005°44'0 0.0
2018-Aug-13 14:31N 58°58' E 005°44'0 0.0
2018-Aug-13 14:01N 58°58' E 005°44'0 0.0
2018-Aug-13 13:28N 58°58' E 005°44'0 0.0
2018-Aug-13 13:01N 58°58' E 005°44'0 0.0
2018-Aug-13 12:28N 58°58' E 005°44'0 0.0
2018-Aug-13 11:58N 58°58' E 005°44'0 0.0
2018-Aug-13 11:28N 58°58' E 005°44'0 0.0
2018-Aug-13 10:58N 58°58' E 005°44'0 0.0
2018-Aug-13 10:31N 58°58' E 005°44'0 0.0
2018-Aug-13 09:58N 58°58' E 005°44'0 0.0
2018-Aug-13 09:31N 58°58' E 005°44'0 0.0
2018-Aug-13 08:58N 58°58' E 005°44'0 0.0
2018-Aug-13 08:31N 58°58' E 005°44'0 0.0
2018-Aug-13 08:01N 58°58' E 005°44'0 0.0
2018-Aug-13 07:28N 58°58' E 005°44'0 0.0
2018-Aug-13 07:01N 58°58' E 005°44'0 0.0
2018-Aug-13 06:28N 58°58' E 005°44'0 0.0
2018-Aug-13 05:58N 58°58' E 005°44'0 0.0
2018-Aug-13 05:31N 58°58' E 005°44'0 0.3
2018-Aug-13 05:00N 58°59' E 005°44'510.1
2018-Aug-13 04:30N 59°02' E 005°36'713.0
2018-Aug-13 04:00N 59°06' E 005°27'5 9.2
2018-Aug-13 03:30N 59°04' E 005°19'510.3
2018-Aug-13 03:00N 59°02' E 005°10'510.1
2018-Aug-13 02:30N 58°57' E 005°05'510.8
2018-Aug-13 02:00N 58°52' E 005°03'510.7
2018-Aug-13 01:30N 58°47' E 005°00'510.7
2018-Aug-13 01:01N 58°42' E 004°58'510.6
2018-Aug-13 00:30N 58°37' E 005°02'510.6
2018-Aug-13 00:00N 58°32' E 005°07'510.2
2018-Aug-12 23:30N 58°28' E 005°12'611.5
2018-Aug-12 23:00N 58°23' E 005°17'712.6
2018-Aug-12 22:29N 58°18' E 005°27'611.6
2018-Aug-12 22:00N 58°15' E 005°35'611.6
2018-Aug-12 21:30N 58°11' E 005°43'611.8
2018-Aug-12 21:00N 58°07' E 005°51'612.0
2018-Aug-12 20:30N 58°03' E 005°60'3011.6
2018-Aug-12 17:57N 57°48' E 006°47'511.9
2018-Aug-12 17:30N 57°47' E 006°57'611.5
2018-Aug-12 16:59N 57°47' E 007°08'611.2
2018-Aug-12 16:29N 57°47' E 007°19'511.0
2018-Aug-12 16:00N 57°47' E 007°29'611.4
2018-Aug-12 15:30N 57°46' E 007°39'611.3
2018-Aug-12 15:00N 57°46' E 007°50'611.2
2018-Aug-12 14:30N 57°46' E 008°01'510.9
2018-Aug-12 14:00N 57°47' E 008°11'7210.3
2018-Aug-12 07:03N 57°50' E 010°25'1 9.2
2018-Aug-12 07:00N 57°50' E 010°26'5 9.0
2018-Aug-12 06:30N 57°51' E 010°35'5 9.2
2018-Aug-12 06:00N 57°49' E 010°43'5 9.1
2018-Aug-12 05:30N 57°47' E 010°50'510.1
2018-Aug-12 05:00N 57°43' E 010°57'5 9.8
2018-Aug-12 04:30N 57°40' E 011°03'510.1
2018-Aug-12 04:00N 57°36' E 011°10'510.1
2018-Aug-12 03:30N 57°33' E 011°17'510.1
2018-Aug-12 03:00N 57°30' E 011°24'510.3
2018-Aug-12 02:30N 57°25' E 011°28'611.1
2018-Aug-12 02:00N 57°20' E 011°32'611.2
2018-Aug-12 01:30N 57°14' E 011°35'510.3
2018-Aug-12 01:00N 57°10' E 011°38'510.1
2018-Aug-12 00:30N 57°05' E 011°42'62 9.8
2018-Aug-11 18:13N 56°09' E 012°28'210.2
2018-Aug-11 18:00N 56°08' E 012°31'510.7
2018-Aug-11 17:30N 56°04' E 012°38'510.7
2018-Aug-11 17:00N 55°59' E 012°42'510.8
2018-Aug-11 16:30N 55°54' E 012°45'510.3
2018-Aug-11 16:00N 55°49' E 012°44'510.4
2018-Aug-11 15:30N 55°44' E 012°40'2 4.0
2018-Aug-11 14:59N 55°43' E 012°37'0 0.0
2018-Aug-11 14:29N 55°43' E 012°37'0 0.0
2018-Aug-11 13:59N 55°43' E 012°37'0 0.0
2018-Aug-11 13:29N 55°43' E 012°37'0 0.0
2018-Aug-11 12:59N 55°43' E 012°37'0 0.0
2018-Aug-11 12:26N 55°43' E 012°37'0 0.0
2018-Aug-11 11:59N 55°43' E 012°37'0 0.0
2018-Aug-11 11:29N 55°43' E 012°37'0 0.0
2018-Aug-11 10:56N 55°43' E 012°37'0 0.0
2018-Aug-11 10:29N 55°43' E 012°37'0 0.0
2018-Aug-11 09:56N 55°43' E 012°37'0 0.0
2018-Aug-11 09:29N 55°43' E 012°37'0 0.0
2018-Aug-11 08:59N 55°43' E 012°37'0 0.0
2018-Aug-11 08:29N 55°43' E 012°37'0 0.0
2018-Aug-11 07:53N 55°43' E 012°37'0 0.0
2018-Aug-11 07:23N 55°43' E 012°37'0 0.0
2018-Aug-11 06:59N 55°43' E 012°37'0 0.0
2018-Aug-11 06:26N 55°43' E 012°37'0 0.0
2018-Aug-11 05:53N 55°43' E 012°37'0 0.0
2018-Aug-11 05:29N 55°43' E 012°37'0 0.0
2018-Aug-11 04:59N 55°43' E 012°37'0 0.4
2018-Aug-11 04:30N 55°43' E 012°37'4 8.0
2018-Aug-11 04:00N 55°46' E 012°42'714.3
2018-Aug-11 03:30N 55°53' E 012°39'713.8
2018-Aug-11 03:01N 55°60' E 012°40'916.8
2018-Aug-11 02:30N 56°07' E 012°31'7213.4
2018-Aug-10 21:07N 55°13' E 011°06'219.0
2018-Aug-10 21:00N 55°11' E 011°05'918.8
2018-Aug-10 20:30N 55°01' E 011°02'918.4
2018-Aug-10 20:01N 54°54' E 010°54'918.5
2018-Aug-10 19:31N 54°44' E 010°53'918.2
2018-Aug-10 19:01N 54°38' E 011°04'1121.1
2018-Aug-10 18:30N 54°34' E 011°21'1020.7
2018-Aug-10 18:00N 54°29' E 011°37'10718.7
2018-Aug-10 12:18N 55°17' E 014°23'720.4
2018-Aug-10 11:57N 55°23' E 014°29'920.1
2018-Aug-10 11:29N 55°29' E 014°42'1520.1
2018-Aug-10 10:46N 55°36' E 015°05'519.9
2018-Aug-10 10:31N 55°38' E 015°13'1019.3
2018-Aug-10 10:01N 55°42' E 015°28'917.8
2018-Aug-10 09:31N 55°47' E 015°42'1019.7
2018-Aug-10 09:01N 55°52' E 015°57'1019.2
2018-Aug-10 08:30N 55°57' E 016°12'918.8
2018-Aug-10 08:01N 56°02' E 016°26'1019.7
2018-Aug-10 07:30N 56°07' E 016°41'918.7
2018-Aug-10 07:01N 56°13' E 016°54'11518.2
2018-Aug-10 00:41N 57°33' E 019°25'419.2
2018-Aug-10 00:28N 57°36' E 019°29'2719.2
2018-Aug-09 23:04N 57°58' E 019°59'118.8
2018-Aug-09 23:01N 57°59' E 019°60'1019.3
2018-Aug-09 22:30N 58°07' E 020°11'4618.7
2018-Aug-09 20:03N 58°44' E 021°02'118.2
2018-Aug-09 20:00N 58°45' E 021°04'918.1
2018-Aug-09 19:30N 58°52' E 021°14'918.4
2018-Aug-09 19:01N 58°59' E 021°24'918.6
2018-Aug-09 18:31N 59°07' E 021°35'918.5
2018-Aug-09 18:01N 59°13' E 021°48'918.4
2018-Aug-09 17:31N 59°19' E 022°02'918.3
2018-Aug-09 17:01N 59°24' E 022°17'918.4
2018-Aug-09 16:30N 59°29' E 022°32'918.9
2018-Aug-09 16:00N 59°32' E 022°50'918.7
2018-Aug-09 15:31N 59°35' E 023°07'1018.4
2018-Aug-09 14:59N 59°37' E 023°26'918.4
2018-Aug-09 14:31N 59°40' E 023°42'918.7
2018-Aug-09 14:01N 59°43' E 023°60'918.9
2018-Aug-09 13:31N 59°46' E 024°18'918.9
2018-Aug-09 13:01N 59°49' E 024°36'918.8
2018-Aug-09 12:31N 59°54' E 024°51'815.3
2018-Aug-09 12:01N 60°01' E 024°56'713.8
2018-Aug-09 11:30N 60°08' E 024°54'1 1.5
2018-Aug-09 10:58N 60°09' E 024°55'0 0.0
2018-Aug-09 10:28N 60°09' E 024°55'0 0.0
2018-Aug-09 09:58N 60°09' E 024°55'0 0.0
2018-Aug-09 09:28N 60°09' E 024°55'0 0.0
2018-Aug-09 08:58N 60°09' E 024°55'0 0.0
2018-Aug-09 08:28N 60°09' E 024°55'0 0.0
2018-Aug-09 07:58N 60°09' E 024°55'0 0.0
2018-Aug-09 07:28N 60°09' E 024°55'0 0.0
2018-Aug-09 06:58N 60°09' E 024°55'0 0.0
2018-Aug-09 06:28N 60°09' E 024°55'0 0.0
2018-Aug-09 05:55N 60°09' E 024°55'0 0.0
2018-Aug-09 05:28N 60°09' E 024°55'0 0.0
2018-Aug-09 04:58N 60°09' E 024°55'0 0.0
2018-Aug-09 04:28N 60°09' E 024°55'0 0.0
2018-Aug-09 03:58N 60°09' E 024°55'0 0.1
2018-Aug-09 03:31N 60°09' E 024°55'4 7.1
2018-Aug-09 03:00N 60°06' E 024°54'712.7
2018-Aug-09 02:29N 59°60' E 024°60'919.1
2018-Aug-09 02:00N 59°56' E 025°17'919.0
2018-Aug-09 01:31N 59°54' E 025°35'1019.2
2018-Aug-09 01:00N 59°57' E 025°54'1019.2
2018-Aug-09 00:30N 59°58' E 026°13'919.4
2018-Aug-09 00:01N 60°01' E 026°31'1019.4
2018-Aug-08 23:30N 60°00' E 026°51'917.9
2018-Aug-08 23:00N 60°01' E 027°08'918.7
2018-Aug-08 22:31N 60°06' E 027°25'1019.0
2018-Aug-08 22:00N 60°11' E 027°41'917.9
2018-Aug-08 21:30N 60°10' E 027°59'918.9
2018-Aug-08 21:00N 60°08' E 028°17'918.4
2018-Aug-08 20:30N 60°03' E 028°33'1322.5
2018-Aug-08 19:56N 60°02' E 028°59'818.8
2018-Aug-08 19:29N 60°02' E 029°16'711.6
2018-Aug-08 18:53N 60°02' E 029°29'811.4
2018-Aug-08 18:11N 59°59' E 029°45'1 5.9
2018-Aug-08 17:59N 59°58' E 029°47'611.5
2018-Aug-08 17:29N 59°56' E 029°57'4 8.0
2018-Aug-08 17:00N 59°56' E 030°05'3 5.3
2018-Aug-08 16:25N 59°57' E 030°11'0 0.0
2018-Aug-08 16:00N 59°57' E 030°11'0 0.0
2018-Aug-08 15:25N 59°57' E 030°11'0 0.0
2018-Aug-08 15:00N 59°57' E 030°11'0 0.0
2018-Aug-08 14:24N 59°57' E 030°11'0 0.0
2018-Aug-08 14:00N 59°57' E 030°11'0 0.0
2018-Aug-08 13:26N 59°57' E 030°11'0 0.0
2018-Aug-08 13:00N 59°57' E 030°11'0 0.0
2018-Aug-08 12:27N 59°57' E 030°11'0 0.0
2018-Aug-08 11:45N 59°57' E 030°11'0 0.0
2018-Aug-08 11:28N 59°57' E 030°11'0 0.0
2018-Aug-08 10:54N 59°57' E 030°11'0 0.0
2018-Aug-08 10:18N 59°57' E 030°11'0 0.0
2018-Aug-08 09:54N 59°57' E 030°11'0 0.0
2018-Aug-08 09:22N 59°57' E 030°11'0 0.0
2018-Aug-08 08:56N 59°57' E 030°11'0 0.0
2018-Aug-08 08:23N 59°57' E 030°11'0 0.0
2018-Aug-08 07:53N 59°57' E 030°11'0 0.0
2018-Aug-08 07:16N 59°57' E 030°11'0 0.0
2018-Aug-08 06:59N 59°57' E 030°11'0 0.0
2018-Aug-08 06:27N 59°57' E 030°11'0 0.0
2018-Aug-08 05:54N 59°57' E 030°11'0 0.0
2018-Aug-08 05:27N 59°57' E 030°11'0 0.0
2018-Aug-08 04:53N 59°57' E 030°11'0 0.0
2018-Aug-08 04:27N 59°57' E 030°11'0 0.0
2018-Aug-08 03:54N 59°57' E 030°11'1 1.6
2018-Aug-08 03:29N 59°57' E 030°10'5 9.1
2018-Aug-08 02:56N 59°55' E 030°00'410.4
2018-Aug-08 02:31N 59°57' E 029°52'1510.0
2018-Aug-08 01:02N 60°02' E 029°24'014.5
2018-Aug-08 01:00N 60°02' E 029°23'816.4
2018-Aug-08 00:30N 60°02' E 029°06'714.2
2018-Aug-08 00:00N 60°02' E 028°52'714.4
2018-Aug-07 23:30N 60°02' E 028°38'815.3
2018-Aug-07 23:00N 60°04' E 028°23'815.4
2018-Aug-07 22:30N 60°08' E 028°09'815.6
2018-Aug-07 22:00N 60°10' E 027°54'715.0
2018-Aug-07 21:30N 60°08' E 027°40'815.6
2018-Aug-07 21:00N 60°04' E 027°26'1016.4
2018-Aug-07 20:24N 59°59' E 027°09'615.0
2018-Aug-07 20:00N 59°58' E 026°57'816.0
2018-Aug-07 19:30N 59°60' E 026°42'816.7
2018-Aug-07 19:00N 59°58' E 026°26'816.8
2018-Aug-07 18:30N 59°56' E 026°09'916.6
2018-Aug-07 17:58N 59°53' E 025°52'816.8
2018-Aug-07 17:30N 59°51' E 025°37'916.7
2018-Aug-07 16:59N 59°49' E 025°20'1117.0
2018-Aug-07 16:22N 59°47' E 024°60'616.6
2018-Aug-07 16:01N 59°43' E 024°50'816.8
2018-Aug-07 15:30N 59°36' E 024°41'815.9
2018-Aug-07 15:01N 59°29' E 024°46'2 3.6
2018-Aug-07 14:30N 59°27' E 024°46'0 0.0
2018-Aug-07 14:00N 59°27' E 024°46'0 0.0
2018-Aug-07 13:30N 59°27' E 024°46'0 0.0
2018-Aug-07 13:00N 59°27' E 024°46'0 0.0
2018-Aug-07 12:30N 59°27' E 024°46'0 0.0
2018-Aug-07 12:00N 59°27' E 024°46'0 0.0
2018-Aug-07 11:30N 59°27' E 024°46'0 0.0
2018-Aug-07 11:00N 59°27' E 024°46'0 0.0
2018-Aug-07 10:30N 59°27' E 024°46'0 0.0
2018-Aug-07 10:00N 59°27' E 024°46'0 0.0
2018-Aug-07 09:30N 59°27' E 024°46'0 0.0
2018-Aug-07 09:00N 59°27' E 024°46'0 0.0
2018-Aug-07 08:30N 59°27' E 024°46'0 0.0
2018-Aug-07 08:00N 59°27' E 024°46'0 0.0
2018-Aug-07 07:30N 59°27' E 024°46'0 0.0
2018-Aug-07 07:00N 59°27' E 024°46'0 0.0
2018-Aug-07 06:30N 59°27' E 024°46'0 0.6
2018-Aug-07 06:00N 59°27' E 024°46'4 8.5
2018-Aug-07 05:30N 59°30' E 024°40'714.6
2018-Aug-07 05:00N 59°30' E 024°26'2517.5
2018-Aug-07 03:34N 59°30' E 023°36'118.0
2018-Aug-07 03:30N 59°30' E 023°34'5617.9
2018-Aug-07 00:24N 59°24' E 021°45'718.2
2018-Aug-07 00:00N 59°24' E 021°31'1018.3
2018-Aug-06 23:29N 59°24' E 021°12'8413.5
2018-Aug-06 17:13N 59°29' E 018°27'311.8
2018-Aug-06 17:00N 59°27' E 018°25'4 8.0
2018-Aug-06 16:30N 59°23' E 018°27'2 4.0
2018-Aug-06 16:00N 59°22' E 018°23'510.3
2018-Aug-06 15:30N 59°21' E 018°14'3 4.8
2018-Aug-06 14:52N 59°21' E 018°08'0 0.0
2018-Aug-06 14:28N 59°21' E 018°08'0 0.0
2018-Aug-06 13:58N 59°21' E 018°08'0 0.0
2018-Aug-06 13:28N 59°21' E 018°08'0 0.0
2018-Aug-06 12:58N 59°21' E 018°08'0 0.0
2018-Aug-06 12:28N 59°21' E 018°08'0 0.0
2018-Aug-06 11:58N 59°21' E 018°08'0 0.0
2018-Aug-06 11:28N 59°21' E 018°08'0 0.0
2018-Aug-06 10:58N 59°21' E 018°08'0 0.0
2018-Aug-06 10:28N 59°21' E 018°08'0 0.0
2018-Aug-06 09:58N 59°21' E 018°08'0 0.0
2018-Aug-06 09:28N 59°21' E 018°08'0 0.0
2018-Aug-06 08:58N 59°21' E 018°08'0 0.0
2018-Aug-06 08:28N 59°21' E 018°08'0 0.0
2018-Aug-06 07:58N 59°21' E 018°08'0 0.0
2018-Aug-06 07:28N 59°21' E 018°08'0 0.0
2018-Aug-06 06:58N 59°21' E 018°08'1 1.5
2018-Aug-06 06:30N 59°21' E 018°09'5 9.1
2018-Aug-06 06:00N 59°22' E 018°17'5 9.8
2018-Aug-06 05:30N 59°22' E 018°26'5 9.6
2018-Aug-06 05:00N 59°26' E 018°23'21011.9
2018-Aug-05 11:23N 56°02' E 016°44'922.7
2018-Aug-05 10:59N 55°57' E 016°31'1122.9
2018-Aug-05 10:30N 55°51' E 016°16'1123.0
2018-Aug-05 10:00N 55°44' E 015°59'1122.8
2018-Aug-05 09:30N 55°40' E 015°40'1223.1
2018-Aug-05 09:01N 55°35' E 015°22'1223.0
2018-Aug-05 08:30N 55°30' E 015°03'1223.0
2018-Aug-05 08:00N 55°26' E 014°44'1122.3
2018-Aug-05 07:30N 55°18' E 014°29'1122.4
2018-Aug-05 07:00N 55°09' E 014°19'7521.9
2018-Aug-05 03:34N 54°37' E 012°21'122.0
2018-Aug-05 03:30N 54°36' E 012°19'2518.6
2018-Aug-05 02:11N 54°25' E 011°40'422.8
2018-Aug-05 02:01N 54°27' E 011°35'1122.9
2018-Aug-05 01:31N 54°32' E 011°17'1122.8
2018-Aug-05 01:00N 54°39' E 011°00'1020.1
2018-Aug-05 00:30N 54°47' E 010°51'1121.3
2018-Aug-05 00:00N 54°57' E 010°57'1121.6
2018-Aug-04 23:31N 55°07' E 011°02'7814.1
2018-Aug-04 17:58N 56°09' E 012°28'817.2
2018-Aug-04 17:29N 56°04' E 012°39'816.7
2018-Aug-04 17:00N 55°56' E 012°44'815.5
2018-Aug-04 16:30N 55°48' E 012°44'612.9
2018-Aug-04 16:00N 55°43' E 012°38'0 0.8
2018-Aug-04 15:30N 55°43' E 012°37'0 0.0
2018-Aug-04 15:00N 55°43' E 012°37'0 0.0
2018-Aug-04 14:30N 55°43' E 012°37'0 0.0
2018-Aug-04 14:00N 55°43' E 012°37'  

Dump ship's entire track history